Hauptseite
METAR-TAF:

METAR-TAF

Flughäfen :

City-Airport Mannheim

Mannheim, Deutschland

Breite: 49-28-21N, Länge: 008-30-56E, Höhe: 100 m

Beobachtung

Neuester Wetterbericht von vor 3 Stunden und 1 Minuten, um 21:20 UTC
Wind 4 kt aus Südost
Temperatur 6°C
Luftfeuchtigkeit 81%
Luftdruck 1004 hPa
Sichtweite 10 km oder mehr
Leicht bewölkt in der Höhe von 3700 ft
Durchbrochene Bewölkung in der Höhe von 4200 ft

METAR: EDFM 122120Z 14004KT 9999 FEW037 BKN042 06/03 Q1004

Zeit: 01:21 (00:21 UTC)

Prognose

Neuester Wetterbericht von vor 7 Stunden und 21 Minuten, um 17:00 UTC
Gültige Prognose vom 12 um 18 UTC bis 12 um 21 UTC
Wind 6 kt aus Süd/Südost
Sichtweite 10 km oder mehr
Aufgelockert bewölkt in der Höhe von 3000 ft
Durchbrochene Bewölkung in der Höhe von 4500 ft

TAF: EDFM 121700Z 1218/1221 16006KT 9999 SCT030 BKN045

Wetterbeobachtungen und Prognosen von mehr als 4000 Flughäfen (METAR und TAF Bericht).

Die verfügbaren Stationen werden durch gelbe und rote Markierungen auf der Karte dargestellt.

Führen Sie die Maus auf sie, um den Namen der Station zu sehen.

Darauf klicken, um die Beobachtung von Wetterbeobachtungen und Prognosen zu sehen.

Um die Karte zu ändern : klicken Sie auf den grünen Tasten mit einem schwarzen Kreuz Zum Vergrößern, auf den grünen Button mit einem Gedankenstrich zu verkleinern, oder auf die grünen Pfeile für benachbarte Karten.


METAR-TAF: